| time (UTC) | temp F | wind direction | speed knots | gust knots | rain 1hr in | rain 24hr in | rain mn in | humidity % | barometer mb |
| 20260507235926 | 53 | 212 | 1.7 | 2.6 | 0.00 | 0.09 | 0.09 | 76 | 1010.4 |
| 20260507235425 | 53 | 210 | 0.9 | 3.5 | 0.00 | 0.09 | 0.09 | 76 | 1010.2 |
| 20260507234926 | 53 | 212 | 2.6 | 3.5 | 0.00 | 0.09 | 0.09 | 76 | 1010.2 |
| 20260507234425 | 53 | 212 | 1.7 | 3.5 | 0.00 | 0.09 | 0.09 | 76 | 1010.1 |
| 20260507233932 | 53 | 212 | 2.6 | 3.5 | 0.00 | 0.09 | 0.09 | 76 | 1009.9 |
| 20260507232924 | 53 | 212 | 1.7 | 3.5 | 0.00 | 0.09 | 0.09 | 76 | 1009.9 |
| 20260507232418 | 53 | 212 | 0.9 | 4.3 | 0.00 | 0.09 | 0.09 | 76 | 1009.9 |
| 20260507231917 | 53 | 212 | 2.6 | 4.3 | 0.00 | 0.09 | 0.09 | 76 | 1009.9 |
| 20260507231403 | 53 | 210 | 2.6 | 4.3 | 0.00 | 0.09 | 0.09 | 76 | 1009.9 |
| 20260507230902 | 53 | 210 | 0.0 | 2.6 | 0.00 | 0.09 | 0.09 | 76 | 1009.8 |
| 20260507230401 | 53 | 210 | 0.9 | 3.5 | 0.00 | 0.09 | 0.09 | 76 | 1009.7 |
| 20260507225902 | 54 | 210 | 1.7 | 3.5 | 0.00 | 0.09 | 0.08 | 76 | 1009.7 |
| 20260507225402 | 54 | 210 | 1.7 | 2.6 | 0.00 | 0.09 | 0.08 | 75 | 1009.7 |
| 20260507224902 | 54 | 210 | 1.7 | 3.5 | 0.00 | 0.09 | 0.08 | 75 | 1009.7 |
| 20260507224403 | 54 | 210 | 2.6 | 3.5 | 0.00 | 0.09 | 0.08 | 75 | 1009.8 |
| 20260507223842 | 54 | 265 | 0.9 | 1.7 | 0.00 | 0.09 | 0.08 | 76 | 1009.7 |
| 20260507223342 | 54 | 168 | 0.0 | 0.0 | 0.00 | 0.09 | 0.08 | 79 | 1009.8 |
| 20260507222831 | 0 | 0.0 | 0.0 | 0.00 | 0.09 | 0.09 | 1009.6 | ||
| 20260507222330 | 0 | 0.0 | 0.0 | 0.00 | 0.09 | 0.09 | |||
| 20260507221831 | 0 | 0.0 | 0.0 | 0.00 | 0.09 | 0.09 | |||
| 20260507221331 | 0 | 0.0 | 0.0 | 0.00 | 0.09 | 0.09 | |||
| 20260507220831 | 0 | 0.0 | 0.0 | 0.00 | 0.09 | 0.09 | |||
| 20260507220331 | 0 | 0.0 | 0.0 | 0.01 | 0.09 | 0.09 | |||
| 20260507215830 | 0 | 0.0 | 0.0 | 0.01 | 0.08 | 0.09 | |||
| 20260507215306 | 0 | 0.0 | 0.0 | 0.03 | 0.08 | 0.09 | |||
| 20260507215021 | 0 | 0.0 | 0.0 | 0.05 | 0.08 | 0.09 | |||
| 20260507214302 | 0 | 0.0 | 0.0 | 0.05 | 0.08 | 0.09 | |||
| 20260507213802 | 0 | 0.0 | 0.0 | 0.05 | 0.08 | 0.09 | |||
| 20260507213302 | 0 | 0.0 | 0.0 | 0.05 | 0.08 | 0.09 | |||
| 20260507212802 | 0 | 0.0 | 0.0 | 0.05 | 0.08 | 0.09 | 1009.6 | ||
| 20260507212230 | 0 | 0.0 | 0.0 | 0.05 | 0.08 | 0.09 | 1009.5 | ||
| 20260507211731 | 53 | 107 | 1.7 | 3.5 | 0.05 | 0.08 | 0.09 | 79 | 1009.3 |
| 20260507211231 | 53 | 107 | 1.7 | 4.3 | 0.05 | 0.08 | 0.09 | 79 | 1009.5 |
| 20260507210730 | 53 | 107 | 0.9 | 4.3 | 0.04 | 0.08 | 0.08 | 78 | 1009.6 |
| 20260507210237 | 54 | 107 | 3.5 | 4.3 | 0.04 | 0.08 | 0.08 | 77 | 1009.4 |
| 20260507205453 | 54 | 107 | 1.7 | 3.5 | 0.02 | 0.04 | 0.05 | 77 | 1009.7 |
| 20260507204730 | 54 | 107 | 0.0 | 1.7 | 0.01 | 0.04 | 0.04 | 76 | 1009.9 |
| 20260507204230 | 54 | 107 | 0.9 | 1.7 | 0.01 | 0.04 | 0.04 | 76 | 1010.2 |
| 20260507203730 | 54 | 107 | 0.9 | 3.5 | 0.01 | 0.04 | 0.04 | 76 | 1009.8 |
| 20260507203230 | 54 | 107 | 1.7 | 3.5 | 0.01 | 0.04 | 0.04 | 71 | 1009.7 |
| 20260507202730 | 0 | 0.0 | 0.0 | 0.01 | 0.04 | 0.04 | 1009.8 | ||
| 20260507202230 | 0 | 0.0 | 0.0 | 0.01 | 0.04 | 0.04 | 1009.9 | ||
| 20260507201731 | 0 | 0.0 | 0.0 | 0.02 | 0.04 | 0.04 | 1009.7 | ||
| 20260507201220 | 54 | 54 | 1.7 | 3.5 | 0.02 | 0.04 | 0.04 | 71 | 1009.8 |
| 20260507200704 | 54 | 54 | 1.7 | 4.3 | 0.02 | 0.04 | 0.04 | 71 | 1009.9 |
| 20260507200202 | 54 | 54 | 1.7 | 4.3 | 0.02 | 0.04 | 0.04 | 71 | 1010.0 |
| 20260507195702 | 54 | 69 | 1.7 | 5.2 | 0.02 | 0.02 | 0.04 | 69 | 1010.1 |
| 20260507195202 | 55 | 69 | 2.6 | 5.2 | 0.02 | 0.02 | 0.04 | 71 | 1010.0 |
| 20260507194703 | 55 | 100 | 1.7 | 4.3 | 0.01 | 0.02 | 0.03 | 72 | 1009.8 |
| 20260507194202 | 55 | 76 | 3.5 | 4.3 | 0.01 | 0.02 | 0.03 | 73 | 1009.7 |
| 20260507193703 | 55 | 21 | 2.6 | 4.3 | 0.01 | 0.02 | 0.03 | 71 | 1010.0 |
| 20260507193433 | 55 | 21 | 2.6 | 4.3 | 0.01 | 0.02 | 0.03 | 71 | 1010.0 |
| 20260507192701 | 56 | 21 | 2.6 | 6.1 | 0.01 | 0.02 | 0.03 | 71 | 1010.1 |
| 20260507192202 | 56 | 28 | 3.5 | 6.1 | 0.01 | 0.02 | 0.02 | 69 | 1010.0 |
| 20260507191703 | 56 | 41 | 3.5 | 5.2 | 0.00 | 0.02 | 0.02 | 68 | 1010.2 |
| 20260507191211 | 56 | 55 | 3.5 | 5.2 | 0.00 | 0.02 | 0.02 | 65 | 1010.2 |
| 20260507190155 | 56 | 82 | 2.6 | 6.1 | 0.00 | 0.02 | 0.02 | 65 | 1010.2 |
| 20260507185654 | 56 | 86 | 3.5 | 6.1 | 0.00 | 0.02 | 0.02 | 65 | 1010.2 |
| 20260507185153 | 56 | 75 | 2.6 | 5.2 | 0.00 | 0.02 | 0.02 | 65 | 1010.2 |
| 20260507184630 | 56 | 78 | 2.6 | 6.1 | 0.00 | 0.02 | 0.02 | 65 | 1010.2 |
| 20260507184129 | 56 | 113 | 3.5 | 6.1 | 0.00 | 0.02 | 0.02 | 66 | 1010.1 |
| 20260507183630 | 56 | 93 | 4.3 | 7.8 | 0.00 | 0.02 | 0.02 | 65 | 1010.1 |
| 20260507183130 | 57 | 100 | 4.3 | 7.8 | 0.00 | 0.03 | 0.02 | 66 | 1010.2 |
| 20260507182630 | 57 | 96 | 4.3 | 7.8 | 0.00 | 0.03 | 0.02 | 64 | 1010.2 |
| 20260507182130 | 57 | 93 | 1.7 | 5.2 | 0.00 | 0.03 | 0.02 | 64 | 1010.4 |
| 20260507181631 | 57 | 93 | 2.6 | 5.2 | 0.00 | 0.03 | 0.02 | 64 | 1010.4 |
| 20260507181131 | 57 | 93 | 3.5 | 7.8 | 0.00 | 0.03 | 0.02 | 64 | 1010.2 |
| 20260507180631 | 57 | 68 | 3.5 | 10.4 | 0.00 | 0.03 | 0.02 | 63 | 1010.2 |
| 20260507180113 | 57 | 51 | 4.3 | 10.4 | 0.00 | 0.03 | 0.02 | 64 | 1010.2 |
| 20260507175606 | 56 | 45 | 3.5 | 9.6 | 0.00 | 0.03 | 0.02 | 64 | 1010.2 |
| 20260507175333 | 56 | 68 | 5.2 | 10.4 | 0.00 | 0.03 | 0.02 | 64 | 1010.5 |
| 20260507174605 | 56 | 58 | 4.3 | 10.4 | 0.00 | 0.03 | 0.02 | 63 | 1010.5 |
| 20260507174103 | 56 | 16 | 6.1 | 9.6 | 0.00 | 0.03 | 0.02 | 64 | 1010.7 |
| 20260507173602 | 56 | 30 | 6.1 | 9.6 | 0.00 | 0.03 | 0.02 | 65 | 1010.8 |
| 20260507173103 | 56 | 45 | 4.3 | 8.7 | 0.00 | 0.03 | 0.02 | 64 | 1010.9 |
| 20260507172605 | 56 | 37 | 5.2 | 8.7 | 0.00 | 0.03 | 0.02 | 66 | 1010.8 |
| 20260507171601 | 56 | 90 | 4.3 | 8.7 | 0.00 | 0.03 | 0.02 | 66 | 1010.7 |
| 20260507171037 | 56 | 47 | 4.3 | 5.2 | 0.00 | 0.03 | 0.02 | 65 | 1010.9 |
| 20260507170532 | 56 | 45 | 5.2 | 7.8 | 0.00 | 0.03 | 0.02 | 65 | 1011.2 |
| 20260507170031 | 56 | 45 | 5.2 | 7.8 | 0.00 | 0.03 | 0.02 | 65 | 1011.3 |
| 20260507165529 | 56 | 45 | 5.2 | 9.6 | 0.00 | 0.03 | 0.02 | 67 | 1011.3 |
| 20260507165030 | 56 | 73 | 5.2 | 12.2 | 0.00 | 0.03 | 0.02 | 67 | 1011.4 |
| 20260507164525 | 56 | 4 | 7.0 | 12.2 | 0.00 | 0.03 | 0.02 | 67 | 1011.3 |
| 20260507164023 | 56 | 21 | 7.0 | 11.3 | 0.00 | 0.03 | 0.02 | 70 | 1011.4 |
| 20260507163522 | 56 | 58 | 7.8 | 11.3 | 0.00 | 0.03 | 0.02 | 70 | 1011.4 |
| 20260507163249 | 56 | 51 | 2.6 | 7.8 | 0.00 | 0.03 | 0.02 | 70 | 1011.6 |
| 20260507162751 | 56 | 52 | 4.3 | 7.8 | 0.00 | 0.03 | 0.02 | 70 | 1011.5 |
| 20260507162016 | 56 | 61 | 4.3 | 7.8 | 0.00 | 0.03 | 0.02 | 70 | 1011.4 |
| 20260507161502 | 56 | 41 | 5.2 | 8.7 | 0.00 | 0.03 | 0.02 | 71 | 1011.6 |
| 20260507161004 | 0 | 34 | 8.7 | 8.7 | 0.00 | 0.03 | 0.02 | 1011.4 | |
| 20260507160725 | 56 | 49 | 3.5 | 4.3 | 0.00 | 0.03 | 0.02 | 71 | 1011.4 |
| 20260507160002 | 56 | 49 | 3.5 | 9.6 | 0.00 | 0.03 | 0.02 | 71 | 1011.6 |
| 20260507155501 | 56 | 42 | 6.1 | 9.6 | 0.00 | 0.03 | 0.02 | 71 | 1011.5 |
| 20260507155002 | 56 | 103 | 4.3 | 10.4 | 0.00 | 0.03 | 0.02 | 71 | 1011.5 |
| 20260507154501 | 56 | 51 | 6.1 | 10.4 | 0.00 | 0.03 | 0.02 | 70 | 1011.7 |
| 20260507154002 | 56 | 42 | 5.2 | 12.2 | 0.00 | 0.03 | 0.02 | 69 | 1011.7 |
| 20260507153502 | 56 | 16 | 8.7 | 13.0 | 0.00 | 0.03 | 0.02 | 70 | 1011.6 |
| 20260507153233 | 56 | 39 | 7.0 | 13.0 | 0.00 | 0.03 | 0.02 | 70 | 1011.4 |
| 20260507152457 | 56 | 39 | 7.8 | 12.2 | 0.00 | 0.03 | 0.02 | 68 | 1011.5 |
| 20260507151958 | 57 | 0 | 4.3 | 15.6 | 0.00 | 0.03 | 0.02 | 68 | 1011.4 |
| 20260507151453 | 57 | 48 | 6.1 | 15.6 | 0.00 | 0.03 | 0.02 | 66 | 1011.5 |
| 20260507150953 | 57 | 56 | 7.8 | 11.3 | 0.00 | 0.03 | 0.02 | 67 | 1011.5 |
| 20260507150453 | 57 | 34 | 6.1 | 10.4 | 0.00 | 0.03 | 0.02 | 67 | 1011.8 |
| 20260507145952 | 57 | 25 | 6.1 | 10.4 | 0.00 | 0.03 | 0.02 | 67 | 1011.7 |
| 20260507145453 | 57 | 58 | 6.1 | 12.2 | 0.00 | 0.03 | 0.02 | 67 | 1011.4 |
| 20260507144952 | 57 | 30 | 5.2 | 12.2 | 0.00 | 0.04 | 0.02 | 68 | 1011.3 |
| 20260507144735 | 57 | 61 | 7.0 | 12.2 | 0.00 | 0.04 | 0.02 | 68 | 1011.0 |
| 20260507143931 | 57 | 41 | 7.8 | 12.2 | 0.00 | 0.06 | 0.02 | 68 | 1011.2 |
| 20260507143431 | 57 | 31 | 5.2 | 12.2 | 0.00 | 0.06 | 0.02 | 68 | 1011.4 |
| 20260507142931 | 57 | 48 | 6.1 | 12.2 | 0.00 | 0.06 | 0.02 | 69 | 1011.4 |
| 20260507142430 | 57 | 73 | 5.2 | 13.0 | 0.00 | 0.08 | 0.02 | 69 | 1011.3 |
| 20260507142202 | 0 | 10 | 13.0 | 13.0 | 0.00 | 0.08 | 0.02 | 1011.5 | |
| 20260507141432 | 58 | 49 | 5.2 | 4.3 | 0.00 | 0.08 | 0.02 | 70 | 1011.4 |
| 20260507140931 | 58 | 49 | 5.2 | 7.8 | 0.00 | 0.08 | 0.02 | 70 | 1011.6 |
| 20260507140431 | 58 | 61 | 5.2 | 10.4 | 0.00 | 0.08 | 0.02 | 70 | 1011.6 |
| 20260507135930 | 58 | 23 | 5.2 | 12.2 | 0.00 | 0.08 | 0.02 | 69 | 1011.7 |
| 20260507135431 | 58 | 68 | 7.0 | 12.2 | 0.00 | 0.09 | 0.02 | 69 | 1011.5 |
| 20260507135159 | 58 | 31 | 7.8 | 12.2 | 0.00 | 0.09 | 0.02 | 69 | 1011.6 |
| 20260507134430 | 58 | 32 | 7.8 | 12.2 | 0.00 | 0.09 | 0.02 | 69 | 1011.7 |
| 20260507133930 | 58 | 30 | 7.0 | 14.8 | 0.00 | 0.09 | 0.02 | 69 | 1011.6 |
| 20260507133430 | 58 | 58 | 7.8 | 14.8 | 0.00 | 0.09 | 0.02 | 69 | 1011.3 |
| 20260507132929 | 58 | 35 | 7.8 | 12.2 | 0.00 | 0.09 | 0.02 | 70 | 1011.3 |
| 20260507132429 | 58 | 13 | 7.0 | 12.2 | 0.00 | 0.09 | 0.02 | 73 | 1011.4 |
| 20260507131925 | 58 | 44 | 7.8 | 11.3 | 0.00 | 0.09 | 0.02 | 75 | 1011.0 |
| 20260507131423 | 58 | 1 | 5.2 | 13.0 | 0.00 | 0.09 | 0.02 | 77 | 1011.2 |
| 20260507130924 | 58 | 41 | 7.8 | 13.0 | 0.00 | 0.09 | 0.02 | 78 | 1011.5 |
| 20260507130423 | 58 | 28 | 5.2 | 12.2 | 0.00 | 0.09 | 0.02 | 78 | 1011.1 |
| 20260507125924 | 58 | 37 | 7.0 | 12.2 | 0.00 | 0.09 | 0.02 | 78 | 1011.0 |
| 20260507125423 | 58 | 30 | 5.2 | 9.6 | 0.00 | 0.09 | 0.02 | 78 | 1011.3 |
| 20260507125207 | 58 | 52 | 3.5 | 9.6 | 0.00 | 0.09 | 0.02 | 78 | 1011.3 |
| 20260507124423 | 58 | 35 | 4.3 | 9.6 | 0.00 | 0.09 | 0.02 | 78 | 1011.2 |
| 20260507123922 | 58 | 51 | 7.0 | 9.6 | 0.00 | 0.09 | 0.02 | 78 | 1011.3 |
| 20260507123656 | 58 | 27 | 6.1 | 9.6 | 0.00 | 0.09 | 0.02 | 78 | 1011.3 |
| 20260507122920 | 58 | 327 | 5.2 | 8.7 | 0.00 | 0.09 | 0.02 | 79 | 1011.2 |
| 20260507122421 | 58 | 24 | 5.2 | 8.7 | 0.00 | 0.09 | 0.02 | 78 | 1011.0 |
| 20260507121911 | 58 | 54 | 5.2 | 8.7 | 0.00 | 0.09 | 0.02 | 78 | 1010.9 |
| 20260507121409 | 58 | 61 | 4.3 | 9.6 | 0.00 | 0.09 | 0.02 | 78 | 1011.0 |
| 20260507121156 | 57 | 35 | 5.2 | 9.6 | 0.00 | 0.09 | 0.02 | 78 | 1010.9 |
| 20260507120635 | 57 | 58 | 5.2 | 9.6 | 0.00 | 0.09 | 0.02 | 77 | 1010.8 |
| 20260507115910 | 57 | 353 | 5.2 | 10.4 | 0.00 | 0.09 | 0.02 | 77 | 1011.2 |
| 20260507115641 | 57 | 27 | 5.2 | 10.4 | 0.00 | 0.09 | 0.02 | 77 | 1011.2 |
| 20260507114910 | 57 | 21 | 5.2 | 8.7 | 0.00 | 0.09 | 0.02 | 78 | 1011.2 |
| 20260507113902 | 57 | 17 | 5.2 | 8.7 | 0.00 | 0.09 | 0.02 | 78 | 1011.3 |
| 20260507113403 | 57 | 32 | 4.3 | 8.7 | 0.00 | 0.09 | 0.02 | 79 | 1010.9 |
| 20260507112903 | 57 | 21 | 3.5 | 7.8 | 0.00 | 0.09 | 0.02 | 80 | 1010.9 |
| 20260507112403 | 0 | 4 | 5.2 | 5.2 | 0.00 | 0.09 | 0.02 | 1010.9 | |
| 20260507111904 | 0 | 0.0 | 0.0 | 0.00 | 0.09 | 0.02 | 1010.6 | ||
| 20260507111354 | 57 | 23 | 3.5 | 6.1 | 0.00 | 0.09 | 0.02 | 80 | 1010.5 |
| 20260507110832 | 57 | 23 | 3.5 | 6.1 | 0.00 | 0.09 | 0.02 | 80 | 1010.9 |
| 20260507110559 | 57 | 20 | 3.5 | 6.1 | 0.00 | 0.09 | 0.02 | 81 | 1010.9 |
| 20260507105830 | 57 | 23 | 5.2 | 5.2 | 0.00 | 0.09 | 0.02 | 81 | 1010.8 |
| 20260507105330 | 57 | 32 | 2.6 | 4.3 | 0.00 | 0.09 | 0.02 | 81 | 1010.6 |
| 20260507104830 | 0 | 0.0 | 0.0 | 0.00 | 0.09 | 0.02 | 1010.5 | ||
| 20260507104325 | 57 | 10 | 4.3 | 7.8 | 0.00 | 0.09 | 0.02 | 81 | 1010.4 |
| 20260507103810 | 57 | 10 | 4.3 | 8.7 | 0.01 | 0.09 | 0.02 | 81 | 1010.4 |
| 20260507103302 | 57 | 16 | 4.3 | 8.7 | 0.01 | 0.09 | 0.02 | 82 | 1010.2 |
| 20260507102803 | 57 | 14 | 4.3 | 7.8 | 0.01 | 0.09 | 0.02 | 82 | 1010.0 |
| 20260507102301 | 57 | 13 | 3.5 | 6.1 | 0.01 | 0.09 | 0.02 | 82 | 1010.0 |
| 20260507101802 | 57 | 32 | 6.1 | 7.8 | 0.01 | 0.09 | 0.02 | 82 | 1010.1 |
| 20260507101303 | 57 | 32 | 6.1 | 7.8 | 0.01 | 0.09 | 0.02 | 82 | 1009.9 |
| 20260507100801 | 57 | 14 | 5.2 | 10.4 | 0.01 | 0.09 | 0.02 | 82 | 1010.1 |
| 20260507100301 | 57 | 20 | 5.2 | 12.2 | 0.02 | 0.09 | 0.02 | 82 | 1010.4 |
| 20260507095802 | 57 | 45 | 5.2 | 12.2 | 0.02 | 0.07 | 0.02 | 82 | 1010.4 |
| 20260507095305 | 57 | 18 | 7.0 | 13.0 | 0.02 | 0.07 | 0.02 | 82 | 1010.4 |
| 20260507094803 | 58 | 16 | 13.0 | 13.0 | 0.02 | 0.07 | 0.02 | 82 | 1010.2 |
| 20260507094524 | 58 | 4 | 3.5 | 5.2 | 0.02 | 0.07 | 0.01 | 82 | 1010.1 |
| 20260507094028 | 58 | 16 | 4.3 | 7.8 | 0.01 | 0.07 | 0.01 | 82 | 1010.6 |
| 20260507093304 | 58 | 16 | 4.3 | 7.8 | 0.01 | 0.07 | 0.01 | 82 | 1010.4 |
| 20260507092759 | 58 | 0 | 5.2 | 7.8 | 0.01 | 0.07 | 0.01 | 82 | 1010.2 |
| 20260507092301 | 58 | 0 | 5.2 | 10.4 | 0.01 | 0.07 | 0.01 | 82 | 1010.4 |
| 20260507091800 | 58 | 32 | 5.2 | 11.3 | 0.01 | 0.07 | 0.01 | 82 | 1010.4 |
| 20260507091300 | 58 | 3 | 7.0 | 12.2 | 0.01 | 0.07 | 0.01 | 82 | 1010.1 |
| 20260507091032 | 59 | 39 | 6.1 | 12.2 | 0.01 | 0.07 | 0.01 | 81 | 1010.0 |
| 20260507090312 | 59 | 27 | 6.1 | 11.3 | 0.00 | 0.07 | 0.00 | 81 | 1010.0 |
| 20260507085759 | 59 | 3 | 6.1 | 11.3 | 0.00 | 0.07 | 0.00 | 80 | 1010.2 |
| 20260507085300 | 60 | 25 | 5.2 | 13.9 | 0.00 | 0.07 | 0.00 | 80 | 1010.1 |
| 20260507084758 | 60 | 21 | 7.0 | 13.9 | 0.00 | 0.07 | 0.00 | 79 | 1010.1 |
| 20260507084300 | 60 | 353 | 4.3 | 11.3 | 0.00 | 0.07 | 0.00 | 79 | 1009.8 |
| 20260507084031 | 61 | 302 | 6.1 | 14.8 | 0.00 | 0.07 | 0.00 | 78 | 1009.7 |
| 20260507083300 | 62 | 355 | 4.3 | 14.8 | 0.00 | 0.07 | 0.00 | 78 | 1009.6 |
| 20260507082807 | 62 | 21 | 6.1 | 13.0 | 0.00 | 0.07 | 0.00 | 78 | 1009.4 |
| 20260507081759 | 65 | 23 | 8.7 | 13.9 | 0.00 | 0.07 | 0.00 | 77 | 1009.5 |
| 20260507081301 | 68 | 353 | 6.1 | 9.6 | 0.00 | 0.07 | 0.00 | 80 | 1009.5 |
| 20260507080758 | 68 | 307 | 2.6 | 7.8 | 0.00 | 0.07 | 0.00 | 80 | 1009.3 |
| 20260507080301 | 68 | 18 | 2.6 | 9.6 | 0.00 | 0.07 | 0.00 | 79 | 1009.0 |
| 20260507075758 | 68 | 316 | 5.2 | 9.6 | 0.00 | 0.07 | 0.00 | 79 | 1008.7 |
| 20260507075300 | 69 | 17 | 1.7 | 5.2 | 0.00 | 0.07 | 0.00 | 79 | 1008.5 |
| 20260507075034 | 69 | 334 | 2.6 | 4.3 | 0.00 | 0.07 | 0.00 | 78 | 1008.6 |
| 20260507074251 | 69 | 3 | 2.6 | 6.1 | 0.00 | 0.07 | 0.00 | 78 | 1008.7 |
| 20260507073746 | 69 | 313 | 3.5 | 6.1 | 0.00 | 0.07 | 0.00 | 78 | 1008.8 |
| 20260507073518 | 69 | 313 | 3.5 | 5.2 | 0.00 | 0.07 | 0.00 | 78 | 1008.8 |
| 20260507072736 | 69 | 257 | 0.9 | 4.3 | 0.00 | 0.07 | 0.00 | 78 | 1008.6 |
| 20260507072231 | 69 | 262 | 3.5 | 6.1 | 0.00 | 0.07 | 0.00 | 77 | 1008.6 |
| 20260507071731 | 69 | 227 | 3.5 | 9.6 | 0.00 | 0.07 | 0.00 | 77 | 1008.6 |
| 20260507071230 | 69 | 244 | 5.2 | 11.3 | 0.00 | 0.07 | 0.00 | 77 | 1008.8 |
| 20260507071008 | 69 | 269 | 5.2 | 11.3 | 0.00 | 0.07 | 0.00 | 77 | 1008.8 |
| 20260507070231 | 69 | 257 | 5.2 | 10.4 | 0.00 | 0.07 | 0.00 | 76 | 1008.7 |
| 20260507065731 | 69 | 216 | 4.3 | 10.4 | 0.00 | 0.07 | 0.00 | 76 | 1008.4 |
| 20260507065231 | 69 | 231 | 6.1 | 10.4 | 0.00 | 0.07 | 0.00 | 75 | 1008.4 |
| 20260507065003 | 70 | 240 | 5.2 | 10.4 | 0.00 | 0.07 | 0.00 | 75 | 1008.5 |
| 20260507064229 | 70 | 230 | 3.5 | 9.6 | 0.00 | 0.07 | 0.00 | 75 | 1008.5 |
| 20260507064005 | 70 | 234 | 6.1 | 8.7 | 0.00 | 0.07 | 0.00 | 75 | 1008.3 |
| 20260507063457 | 70 | 223 | 4.3 | 7.8 | 0.00 | 0.07 | 0.00 | 75 | 1008.2 |
| 20260507062707 | 70 | 193 | 3.5 | 7.8 | 0.00 | 0.07 | 0.00 | 75 | 1008.1 |
| 20260507062203 | 70 | 214 | 5.2 | 10.4 | 0.00 | 0.07 | 0.00 | 76 | 1008.0 |
| 20260507061702 | 70 | 214 | 5.2 | 10.4 | 0.00 | 0.07 | 0.00 | 76 | 1008.1 |
| 20260507061435 | 70 | 202 | 4.3 | 8.7 | 0.00 | 0.07 | 0.00 | 75 | 1008.0 |
| 20260507060703 | 70 | 202 | 4.3 | 8.7 | 0.00 | 0.07 | 0.00 | 75 | 1008.0 |
| 20260507060202 | 70 | 189 | 4.3 | 10.4 | 0.00 | 0.07 | 0.00 | 75 | 1008.0 |
| 20260507055701 | 70 | 179 | 3.5 | 10.4 | 0.00 | 0.07 | 0.00 | 75 | 1008.0 |
| 20260507055201 | 70 | 214 | 4.3 | 11.3 | 0.00 | 0.07 | 0.00 | 75 | 1008.2 |
| 20260507054702 | 70 | 213 | 7.8 | 11.3 | 0.00 | 0.07 | 0.00 | 75 | 1008.4 |
| 20260507054434 | 70 | 180 | 5.2 | 9.6 | 0.00 | 0.07 | 0.00 | 75 | 1008.3 |
| 20260507053702 | 70 | 221 | 6.1 | 11.3 | 0.00 | 0.07 | 0.00 | 75 | 1008.2 |
| 20260507053436 | 70 | 213 | 7.8 | 11.3 | 0.00 | 0.07 | 0.00 | 75 | 1008.2 |
| 20260507052701 | 71 | 214 | 5.2 | 10.4 | 0.00 | 0.07 | 0.00 | 75 | 1008.3 |
| 20260507052202 | 70 | 220 | 5.2 | 10.4 | 0.00 | 0.07 | 0.00 | 75 | 1008.5 |
| 20260507051702 | 71 | 206 | 6.1 | 11.3 | 0.00 | 0.07 | 0.00 | 75 | 1008.7 |
| 20260507051203 | 71 | 252 | 6.1 | 11.3 | 0.00 | 0.07 | 0.00 | 75 | 1008.7 |
| 20260507050922 | 71 | 228 | 7.0 | 11.3 | 0.00 | 0.07 | 0.00 | 75 | 1009.0 |
| 20260507050143 | 70 | 220 | 7.8 | 11.3 | 0.00 | 0.07 | 0.00 | 75 | 1009.2 |
| 20260507045645 | 70 | 227 | 5.2 | 10.4 | 0.00 | 0.07 | 0.00 | 75 | 1009.3 |
| 20260507045143 | 70 | 237 | 6.1 | 12.2 | 0.00 | 0.07 | 0.00 | 75 | 1009.3 |
| 20260507044645 | 70 | 224 | 5.2 | 12.2 | 0.00 | 0.07 | 0.00 | 75 | 1009.3 |
| 20260507044143 | 70 | 220 | 6.1 | 8.7 | 0.00 | 0.07 | 0.00 | 75 | 1009.3 |
| 20260507043920 | 70 | 228 | 7.0 | 9.6 | 0.00 | 0.07 | 0.00 | 75 | 1009.4 |
| 20260507043142 | 70 | 172 | 4.3 | 10.4 | 0.00 | 0.07 | 0.00 | 75 | 1009.5 |
| 20260507042645 | 70 | 207 | 6.1 | 10.4 | 0.00 | 0.07 | 0.00 | 75 | 1009.6 |
| 20260507042144 | 70 | 200 | 5.2 | 10.4 | 0.00 | 0.07 | 0.00 | 75 | 1009.7 |
| 20260507041923 | 70 | 195 | 7.8 | 11.3 | 0.00 | 0.07 | 0.00 | 76 | 1009.4 |
| 20260507041142 | 70 | 199 | 6.1 | 11.3 | 0.00 | 0.07 | 0.00 | 76 | 1009.3 |
| 20260507040639 | 70 | 193 | 4.3 | 7.8 | 0.00 | 0.07 | 0.00 | 76 | 1009.3 |
| 20260507040131 | 70 | 228 | 3.5 | 7.8 | 0.00 | 0.07 | 0.00 | 76 | 1009.3 |
| 20260507035632 | 69 | 231 | 3.5 | 8.7 | 0.00 | 0.07 | 0.07 | 76 | 1009.4 |
| 20260507035131 | 69 | 195 | 3.5 | 8.7 | 0.00 | 0.07 | 0.07 | 76 | 1009.5 |
| 20260507034631 | 69 | 200 | 4.3 | 7.8 | 0.00 | 0.07 | 0.07 | 77 | 1009.6 |
| 20260507034409 | 69 | 228 | 3.5 | 10.4 | 0.00 | 0.07 | 0.07 | 77 | 1009.5 |
| 20260507033629 | 69 | 206 | 4.3 | 10.4 | 0.00 | 0.07 | 0.07 | 77 | 1009.5 |
| 20260507033131 | 69 | 212 | 4.3 | 10.4 | 0.00 | 0.07 | 0.07 | 77 | 1009.3 |
| 20260507032630 | 69 | 195 | 6.1 | 10.4 | 0.00 | 0.07 | 0.07 | 77 | 1009.1 |
| 20260507032406 | 69 | 190 | 5.2 | 10.4 | 0.00 | 0.07 | 0.07 | 77 | 1008.9 |
| 20260507031629 | 69 | 210 | 4.3 | 7.8 | 0.00 | 0.07 | 0.07 | 77 | 1008.9 |
| 20260507031131 | 69 | 213 | 5.2 | 7.8 | 0.00 | 0.07 | 0.07 | 77 | 1009.0 |
| 20260507030903 | 69 | 223 | 4.3 | 8.7 | 0.00 | 0.07 | 0.07 | 77 | 1009.0 |
| 20260507030130 | 69 | 210 | 3.5 | 8.7 | 0.00 | 0.07 | 0.07 | 77 | 1008.9 |
| 20260507025631 | 69 | 217 | 4.3 | 9.6 | 0.00 | 0.07 | 0.07 | 77 | 1008.9 |
| 20260507025129 | 69 | 185 | 5.2 | 9.6 | 0.00 | 0.07 | 0.07 | 77 | 1008.9 |
| 20260507024632 | 69 | 178 | 5.2 | 9.6 | 0.00 | 0.07 | 0.07 | 77 | 1008.8 |
| 20260507024124 | 69 | 195 | 4.3 | 8.7 | 0.00 | 0.07 | 0.07 | 77 | 1009.0 |
| 20260507023847 | 69 | 207 | 4.3 | 8.7 | 0.00 | 0.07 | 0.07 | 77 | 1009.0 |
| 20260507023113 | 69 | 214 | 4.3 | 6.1 | 0.00 | 0.07 | 0.07 | 77 | 1009.0 |
| 20260507022603 | 69 | 185 | 3.5 | 7.8 | 0.00 | 0.07 | 0.07 | 77 | 1009.3 |
| 20260507022103 | 69 | 199 | 4.3 | 8.7 | 0.00 | 0.07 | 0.07 | 77 | 1009.2 |
| 20260507021601 | 69 | 192 | 5.2 | 8.7 | 0.00 | 0.07 | 0.07 | 77 | 1009.2 |
| 20260507021103 | 69 | 169 | 4.3 | 9.6 | 0.00 | 0.07 | 0.07 | 77 | 1009.4 |
| 20260507020826 | 69 | 145 | 5.2 | 9.6 | 0.00 | 0.07 | 0.07 | 77 | 1009.5 |
| 20260507020323 | 69 | 193 | 3.5 | 6.1 | 0.00 | 0.07 | 0.07 | 76 | 1009.5 |
| 20260507015551 | 69 | 203 | 4.3 | 6.1 | 0.00 | 0.07 | 0.07 | 76 | 1009.5 |
| 20260507015046 | 69 | 210 | 5.2 | 6.1 | 0.00 | 0.07 | 0.07 | 76 | 1009.5 |
| 20260507014543 | 69 | 200 | 3.5 | 6.1 | 0.00 | 0.07 | 0.07 | 76 | 1009.6 |
| 20260507014041 | 69 | 204 | 3.5 | 5.2 | 0.00 | 0.07 | 0.07 | 76 | 1009.4 |
| 20260507013805 | 69 | 206 | 2.6 | 4.3 | 0.00 | 0.07 | 0.07 | 76 | 1009.5 |
| 20260507013030 | 69 | 206 | 2.6 | 4.3 | 0.00 | 0.07 | 0.07 | 76 | 1009.4 |
| 20260507012758 | 69 | 182 | 3.5 | 4.3 | 0.00 | 0.07 | 0.07 | 75 | 1009.3 |
| 20260507012030 | 69 | 180 | 3.5 | 5.2 | 0.00 | 0.07 | 0.07 | 75 | 1009.3 |
| 20260507011805 | 69 | 171 | 3.5 | 5.2 | 0.00 | 0.07 | 0.07 | 75 | 1009.3 |
| 20260507011029 | 70 | 190 | 3.5 | 5.2 | 0.00 | 0.07 | 0.07 | 75 | 1009.2 |
| 20260507010529 | 70 | 192 | 3.5 | 5.2 | 0.00 | 0.07 | 0.07 | 74 | 1009.3 |
| 20260507010030 | 70 | 199 | 2.6 | 3.5 | 0.00 | 0.07 | 0.07 | 74 | 1009.3 |
| 20260507005530 | 70 | 199 | 1.7 | 4.3 | 0.00 | 0.07 | 0.07 | 74 | 1009.1 |
| 20260507005030 | 70 | 210 | 2.6 | 6.1 | 0.00 | 0.07 | 0.07 | 73 | 1009.2 |
| 20260507004530 | 70 | 212 | 4.3 | 7.8 | 0.00 | 0.07 | 0.07 | 73 | 1009.4 |
| 20260507004030 | 70 | 178 | 3.5 | 9.6 | 0.00 | 0.07 | 0.07 | 73 | 1009.4 |
| 20260507003529 | 70 | 216 | 5.2 | 9.6 | 0.00 | 0.07 | 0.07 | 73 | 1009.5 |
| 20260507003303 | 0 | 192 | 2.6 | 2.6 | 0.00 | 0.07 | 0.07 | 1009.4 | |
| 20260507002530 | 0 | 0.0 | 0.0 | 0.00 | 0.07 | 0.07 | 1009.4 | ||
| 20260507002028 | 71 | 210 | 4.3 | 6.1 | 0.00 | 0.07 | 0.07 | 72 | 1009.4 |
| 20260507001004 | 71 | 193 | 3.5 | 9.6 | 0.00 | 0.07 | 0.07 | 71 | 1009.6 |
| 20260507000749 | 71 | 190 | 5.2 | 9.6 | 0.00 | 0.07 | 0.07 | 71 | 1009.5 |